createdAt,value
2022-10-26T00:00:15.000Z,98509
2022-10-26T00:01:42.000Z,98509
2022-10-26T00:03:48.000Z,98503
2022-10-26T00:05:15.000Z,98507
2022-10-26T00:07:21.000Z,98505
2022-10-26T00:08:47.000Z,98509
2022-10-26T00:10:53.000Z,98506
2022-10-26T00:12:20.000Z,98502
2022-10-26T00:14:26.000Z,98503
2022-10-26T00:17:17.000Z,98498
2022-10-26T00:18:44.000Z,98494
2022-10-26T00:20:50.000Z,98498
2022-10-26T00:22:16.000Z,98501
2022-10-26T00:24:22.000Z,98499
2022-10-26T00:25:49.000Z,98495
2022-10-26T00:27:55.000Z,98497
2022-10-26T00:29:21.000Z,98490
2022-10-26T00:31:27.000Z,98492
2022-10-26T00:32:54.000Z,98491
2022-10-26T00:35:00.000Z,98490
2022-10-26T00:36:47.000Z,98485
2022-10-26T00:38:53.000Z,98493
2022-10-26T00:40:20.000Z,98489
2022-10-26T00:42:26.000Z,98490
2022-10-26T00:43:52.000Z,98491
2022-10-26T00:45:59.000Z,98489
2022-10-26T00:47:25.000Z,98491
2022-10-26T00:49:31.000Z,98490
2022-10-26T00:50:58.000Z,98489
2022-10-26T00:53:04.000Z,98490
2022-10-26T00:55:55.000Z,98488
2022-10-26T00:57:22.000Z,98489
2022-10-26T00:59:28.000Z,98491
2022-10-26T01:00:54.000Z,98489
2022-10-26T01:03:00.000Z,98489
2022-10-26T01:04:27.000Z,98488
2022-10-26T01:06:33.000Z,98488
2022-10-26T01:07:59.000Z,98485
2022-10-26T01:10:05.000Z,98485
2022-10-26T01:11:32.000Z,98486
2022-10-26T01:13:38.000Z,98481
2022-10-26T01:15:04.000Z,98479
2022-10-26T01:17:11.000Z,98480
2022-10-26T01:18:37.000Z,98479
2022-10-26T01:20:43.000Z,98475
2022-10-26T01:22:10.000Z,98476
2022-10-26T01:24:16.000Z,98478
2022-10-26T01:25:42.000Z,98476
2022-10-26T01:27:49.000Z,98479
2022-10-26T01:29:16.000Z,98477
2022-10-26T01:31:22.000Z,98477
2022-10-26T01:34:13.000Z,98473
2022-10-26T01:35:39.000Z,98469
2022-10-26T01:37:45.000Z,98470
2022-10-26T01:39:12.000Z,98470
2022-10-26T01:41:18.000Z,98473
2022-10-26T01:42:45.000Z,98472
2022-10-26T01:44:51.000Z,98468
2022-10-26T01:48:24.000Z,98465
2022-10-26T01:49:50.000Z,98467
2022-10-26T01:51:56.000Z,98464
2022-10-26T01:53:23.000Z,98460
2022-10-26T01:55:29.000Z,98461
2022-10-26T01:56:55.000Z,98456
2022-10-26T01:59:01.000Z,98459
2022-10-26T02:00:28.000Z,98456
2022-10-26T02:02:34.000Z,98458
2022-10-26T02:04:01.000Z,98455
2022-10-26T02:06:07.000Z,98454
2022-10-26T02:07:33.000Z,98450
2022-10-26T02:09:39.000Z,98449
2022-10-26T02:12:30.000Z,98442
2022-10-26T02:13:57.000Z,98441
2022-10-26T02:16:03.000Z,98442
2022-10-26T02:17:29.000Z,98437
2022-10-26T02:19:35.000Z,98436
2022-10-26T02:21:02.000Z,98437
2022-10-26T02:23:08.000Z,98434
2022-10-26T02:24:34.000Z,98431
2022-10-26T02:26:41.000Z,98429
2022-10-26T02:28:07.000Z,98427
2022-10-26T02:30:13.000Z,98427
2022-10-26T02:31:40.000Z,98429
2022-10-26T02:33:46.000Z,98427
2022-10-26T02:35:12.000Z,98427
2022-10-26T02:37:18.000Z,98424
2022-10-26T02:38:45.000Z,98425
2022-10-26T02:40:51.000Z,98427
2022-10-26T02:42:17.000Z,98426
2022-10-26T02:44:24.000Z,98429
2022-10-26T02:45:50.000Z,98428
2022-10-26T02:47:56.000Z,98427
2022-10-26T02:50:47.000Z,98424
2022-10-26T02:52:14.000Z,98425
2022-10-26T02:54:20.000Z,98426
2022-10-26T02:55:46.000Z,98427
2022-10-26T02:57:52.000Z,98422
2022-10-26T02:59:19.000Z,98421
2022-10-26T03:01:25.000Z,98419
2022-10-26T03:02:52.000Z,98419
2022-10-26T03:04:58.000Z,98419
2022-10-26T03:06:25.000Z,98417
2022-10-26T03:08:31.000Z,98412
2022-10-26T03:09:57.000Z,98409
2022-10-26T03:12:03.000Z,98415
2022-10-26T03:13:30.000Z,98415
2022-10-26T03:15:36.000Z,98419
2022-10-26T03:17:03.000Z,98417
2022-10-26T03:19:09.000Z,98419
2022-10-26T03:20:35.000Z,98417
2022-10-26T03:22:41.000Z,98419
2022-10-26T03:24:08.000Z,98420
2022-10-26T03:26:14.000Z,98420
2022-10-26T03:29:05.000Z,98417
2022-10-26T03:30:32.000Z,98417
2022-10-26T03:32:38.000Z,98416
2022-10-26T03:34:04.000Z,98419
2022-10-26T03:36:10.000Z,98416
2022-10-26T03:37:37.000Z,98416
2022-10-26T03:39:43.000Z,98417
2022-10-26T03:41:09.000Z,98418
2022-10-26T03:43:16.000Z,98415
2022-10-26T03:44:42.000Z,98411
2022-10-26T03:46:48.000Z,98417
2022-10-26T03:48:15.000Z,98415
2022-10-26T03:50:21.000Z,98417
2022-10-26T03:51:47.000Z,98416
2022-10-26T03:53:54.000Z,98414
2022-10-26T03:55:20.000Z,98416
2022-10-26T03:57:26.000Z,98418
2022-10-26T03:58:53.000Z,98418
2022-10-26T04:00:59.000Z,98415
2022-10-26T04:02:25.000Z,98412
2022-10-26T04:04:31.000Z,98416
2022-10-26T04:07:22.000Z,98415
2022-10-26T04:08:49.000Z,98413
2022-10-26T04:10:55.000Z,98415
2022-10-26T04:12:22.000Z,98416
2022-10-26T04:14:28.000Z,98415
2022-10-26T04:15:54.000Z,98419
2022-10-26T04:18:00.000Z,98421
2022-10-26T04:19:27.000Z,98425
2022-10-26T04:21:33.000Z,98424
2022-10-26T04:22:59.000Z,98426
2022-10-26T04:25:06.000Z,98424
2022-10-26T04:26:32.000Z,98423
2022-10-26T04:28:38.000Z,98422
2022-10-26T04:30:05.000Z,98423
2022-10-26T04:32:11.000Z,98423
2022-10-26T04:33:37.000Z,98424
2022-10-26T04:35:43.000Z,98424
2022-10-26T04:37:10.000Z,98418
2022-10-26T04:39:16.000Z,98423
2022-10-26T04:40:43.000Z,98422
2022-10-26T04:42:49.000Z,98420
2022-10-26T04:45:41.000Z,98420
2022-10-26T04:47:07.000Z,98413
2022-10-26T04:49:13.000Z,98415
2022-10-26T04:50:40.000Z,98412
2022-10-26T04:52:46.000Z,98415
2022-10-26T04:54:13.000Z,98410
2022-10-26T04:56:19.000Z,98405
2022-10-26T04:57:46.000Z,98406
2022-10-26T04:59:52.000Z,98403
2022-10-26T05:01:18.000Z,98405
2022-10-26T05:03:25.000Z,98403
2022-10-26T05:04:51.000Z,98403
2022-10-26T05:06:58.000Z,98404
2022-10-26T05:08:24.000Z,98405
2022-10-26T05:10:30.000Z,98404
2022-10-26T05:11:57.000Z,98404
2022-10-26T05:14:03.000Z,98401
2022-10-26T05:15:29.000Z,98401
2022-10-26T05:17:35.000Z,98398
2022-10-26T05:19:02.000Z,98398
2022-10-26T05:21:08.000Z,98396
2022-10-26T05:23:59.000Z,98398
2022-10-26T05:25:26.000Z,98402
2022-10-26T05:27:32.000Z,98408
2022-10-26T05:28:58.000Z,98416
2022-10-26T05:31:04.000Z,98412
2022-10-26T05:32:31.000Z,98410
2022-10-26T05:34:37.000Z,98407
2022-10-26T05:36:07.000Z,98408
2022-10-26T05:38:14.000Z,98407
2022-10-26T05:39:40.000Z,98411
2022-10-26T05:41:46.000Z,98406
2022-10-26T05:43:13.000Z,98409
2022-10-26T05:45:19.000Z,98410
2022-10-26T05:46:45.000Z,98411
2022-10-26T05:48:52.000Z,98414
2022-10-26T05:50:18.000Z,98418
2022-10-26T05:52:24.000Z,98418
2022-10-26T05:53:51.000Z,98419
2022-10-26T05:55:57.000Z,98413
2022-10-26T05:57:23.000Z,98418
2022-10-26T05:59:29.000Z,98415
2022-10-26T06:02:20.000Z,98415
2022-10-26T06:03:47.000Z,98417
2022-10-26T06:05:53.000Z,98425
2022-10-26T06:07:20.000Z,98422
2022-10-26T06:09:26.000Z,98416
2022-10-26T06:10:52.000Z,98415
2022-10-26T06:12:58.000Z,98420
2022-10-26T06:14:25.000Z,98419
2022-10-26T06:16:31.000Z,98424
2022-10-26T06:17:58.000Z,98431
2022-10-26T06:20:04.000Z,98432
2022-10-26T06:21:30.000Z,98431
2022-10-26T06:23:36.000Z,98432
2022-10-26T06:25:03.000Z,98436
2022-10-26T06:27:09.000Z,98437
2022-10-26T06:28:36.000Z,98441
2022-10-26T06:30:42.000Z,98439
2022-10-26T06:32:08.000Z,98436
2022-10-26T06:34:14.000Z,98445
2022-10-26T06:35:41.000Z,98445
2022-10-26T06:37:47.000Z,98445
2022-10-26T06:40:39.000Z,98443
2022-10-26T06:42:05.000Z,98441
2022-10-26T06:44:11.000Z,98440
2022-10-26T06:45:38.000Z,98440
2022-10-26T06:47:44.000Z,98449
2022-10-26T06:49:11.000Z,98452
2022-10-26T06:51:17.000Z,98449
2022-10-26T06:52:43.000Z,98447
2022-10-26T06:54:49.000Z,98450
2022-10-26T06:56:16.000Z,98452
2022-10-26T06:58:22.000Z,98452
2022-10-26T06:59:48.000Z,98450
2022-10-26T07:01:54.000Z,98451
2022-10-26T07:03:21.000Z,98451
2022-10-26T07:05:27.000Z,98450
2022-10-26T07:06:54.000Z,98451
2022-10-26T07:09:00.000Z,98453
2022-10-26T07:10:27.000Z,98453
2022-10-26T07:12:33.000Z,98454
2022-10-26T07:13:59.000Z,98452
2022-10-26T07:16:06.000Z,98453
2022-10-26T07:18:57.000Z,98451
2022-10-26T07:20:23.000Z,98455
2022-10-26T07:22:30.000Z,98457
2022-10-26T07:23:56.000Z,98460
2022-10-26T07:26:02.000Z,98468
2022-10-26T07:27:29.000Z,98463
2022-10-26T07:29:35.000Z,98466
2022-10-26T07:31:02.000Z,98471
2022-10-26T07:33:08.000Z,98473
2022-10-26T07:34:34.000Z,98483
2022-10-26T07:36:40.000Z,98481
2022-10-26T07:38:07.000Z,98482
2022-10-26T07:40:13.000Z,98484
2022-10-26T07:41:40.000Z,98482
2022-10-26T07:43:46.000Z,98479
2022-10-26T07:45:12.000Z,98481
2022-10-26T07:47:18.000Z,98480
2022-10-26T07:48:45.000Z,98480
2022-10-26T07:50:51.000Z,98479
2022-10-26T07:52:18.000Z,98485
2022-10-26T07:54:24.000Z,98487
2022-10-26T07:57:15.000Z,98489
2022-10-26T07:58:41.000Z,98495
2022-10-26T08:00:47.000Z,98494
2022-10-26T08:02:14.000Z,98497
2022-10-26T08:04:20.000Z,98508
2022-10-26T08:05:46.000Z,98508
2022-10-26T08:07:53.000Z,98513
2022-10-26T08:09:19.000Z,98510
2022-10-26T08:11:25.000Z,98512
2022-10-26T08:12:52.000Z,98516
2022-10-26T08:14:58.000Z,98519
2022-10-26T08:16:24.000Z,98526
2022-10-26T08:18:30.000Z,98523
2022-10-26T08:19:57.000Z,98527
2022-10-26T08:22:03.000Z,98523
2022-10-26T08:23:30.000Z,98527
2022-10-26T08:25:36.000Z,98521
2022-10-26T08:27:02.000Z,98523
2022-10-26T08:29:08.000Z,98522
2022-10-26T08:32:41.000Z,98527
2022-10-26T08:35:32.000Z,98535
2022-10-26T08:36:58.000Z,98536
2022-10-26T08:39:05.000Z,98538
2022-10-26T08:40:31.000Z,98537
2022-10-26T08:42:37.000Z,98535
2022-10-26T08:44:04.000Z,98534
2022-10-26T08:46:10.000Z,98532
2022-10-26T08:47:36.000Z,98528
2022-10-26T08:49:42.000Z,98527
2022-10-26T08:51:09.000Z,98524
2022-10-26T08:53:15.000Z,98522
2022-10-26T08:54:41.000Z,98523
2022-10-26T08:56:48.000Z,98525
2022-10-26T08:58:17.000Z,98524
2022-10-26T09:00:23.000Z,98533
2022-10-26T09:01:50.000Z,98534
2022-10-26T09:03:56.000Z,98533
2022-10-26T09:05:22.000Z,98533
2022-10-26T09:07:29.000Z,98536
2022-10-26T09:08:55.000Z,98543
2022-10-26T09:11:01.000Z,98538
2022-10-26T09:13:52.000Z,98533
2022-10-26T09:15:25.000Z,98531
2022-10-26T09:17:31.000Z,98530
2022-10-26T09:18:57.000Z,98532
2022-10-26T09:21:08.000Z,98536
2022-10-26T09:22:35.000Z,98536
2022-10-26T09:24:41.000Z,98539
2022-10-26T09:26:07.000Z,98542
2022-10-26T09:28:13.000Z,98545
2022-10-26T09:29:40.000Z,98539
2022-10-26T09:31:46.000Z,98543
2022-10-26T09:33:12.000Z,98552
2022-10-26T09:35:19.000Z,98549
2022-10-26T09:36:45.000Z,98546
2022-10-26T09:38:52.000Z,98535
2022-10-26T09:40:18.000Z,98531
2022-10-26T09:42:24.000Z,98532
2022-10-26T09:43:51.000Z,98537
2022-10-26T09:45:57.000Z,98541
2022-10-26T09:47:24.000Z,98536
2022-10-26T09:49:30.000Z,98536
2022-10-26T09:52:21.000Z,98538
2022-10-26T09:53:48.000Z,98539
2022-10-26T09:55:54.000Z,98536
2022-10-26T09:57:21.000Z,98536
2022-10-26T09:59:27.000Z,98530
2022-10-26T10:00:53.000Z,98535
2022-10-26T10:02:59.000Z,98538
2022-10-26T10:04:26.000Z,98540
2022-10-26T10:06:32.000Z,98542
2022-10-26T10:07:59.000Z,98541
2022-10-26T10:10:05.000Z,98539
2022-10-26T10:11:31.000Z,98541
2022-10-26T10:13:38.000Z,98553
2022-10-26T10:15:04.000Z,98554
2022-10-26T10:17:10.000Z,98554
2022-10-26T10:18:37.000Z,98562
2022-10-26T10:20:43.000Z,98567
2022-10-26T10:22:09.000Z,98564
2022-10-26T10:24:16.000Z,98576
2022-10-26T10:25:42.000Z,98571
2022-10-26T10:27:48.000Z,98567
2022-10-26T10:30:40.000Z,98564
2022-10-26T10:32:06.000Z,98567
2022-10-26T10:34:13.000Z,98563
2022-10-26T10:35:39.000Z,98564
2022-10-26T10:37:45.000Z,98566
2022-10-26T10:39:12.000Z,98568
2022-10-26T10:41:18.000Z,98571
2022-10-26T10:42:44.000Z,98573
2022-10-26T10:44:50.000Z,98576
2022-10-26T10:46:17.000Z,98578
2022-10-26T10:48:23.000Z,98582
2022-10-26T10:49:49.000Z,98578
2022-10-26T10:51:56.000Z,98576
2022-10-26T10:53:22.000Z,98576
2022-10-26T10:55:28.000Z,98575
2022-10-26T10:56:55.000Z,98573
2022-10-26T10:59:01.000Z,98578
2022-10-26T11:00:27.000Z,98579
2022-10-26T11:02:33.000Z,98582
2022-10-26T11:04:00.000Z,98584
2022-10-26T11:06:06.000Z,98583
2022-10-26T11:08:57.000Z,98583
2022-10-26T11:10:23.000Z,98579
2022-10-26T11:12:30.000Z,98576
2022-10-26T11:13:56.000Z,98574
2022-10-26T11:16:02.000Z,98571
2022-10-26T11:17:29.000Z,98572
2022-10-26T11:19:35.000Z,98580
2022-10-26T11:21:01.000Z,98581
2022-10-26T11:23:07.000Z,98576
2022-10-26T11:24:34.000Z,98577
2022-10-26T11:26:40.000Z,98576
2022-10-26T11:28:12.000Z,98576
2022-10-26T11:30:18.000Z,98570
2022-10-26T11:31:44.000Z,98575
2022-10-26T11:33:50.000Z,98574
2022-10-26T11:35:17.000Z,98574
2022-10-26T11:37:23.000Z,98572
2022-10-26T11:38:50.000Z,98575
2022-10-26T11:41:02.000Z,98574
2022-10-26T11:42:29.000Z,98586
2022-10-26T11:44:35.000Z,98591
2022-10-26T11:47:26.000Z,98592
2022-10-26T11:48:53.000Z,98600
2022-10-26T11:50:59.000Z,98604
2022-10-26T11:52:26.000Z,98607
2022-10-26T11:54:32.000Z,98605
2022-10-26T11:55:58.000Z,98611
2022-10-26T11:58:04.000Z,98608
2022-10-26T11:59:31.000Z,98610
2022-10-26T12:01:39.000Z,98610
2022-10-26T12:03:06.000Z,98615
2022-10-26T12:05:12.000Z,98611
2022-10-26T12:06:39.000Z,98610
2022-10-26T12:08:45.000Z,98607
2022-10-26T12:10:11.000Z,98605
2022-10-26T12:12:17.000Z,98608
2022-10-26T12:13:44.000Z,98610
2022-10-26T12:15:50.000Z,98613
2022-10-26T12:17:30.000Z,98615
2022-10-26T12:19:36.000Z,98612
2022-10-26T12:21:02.000Z,98616
2022-10-26T12:23:08.000Z,98624
2022-10-26T12:25:59.000Z,98629
2022-10-26T12:27:26.000Z,98633
2022-10-26T12:29:32.000Z,98631
2022-10-26T12:30:58.000Z,98634
2022-10-26T12:33:05.000Z,98630
2022-10-26T12:34:31.000Z,98631
2022-10-26T12:36:37.000Z,98631
2022-10-26T12:38:04.000Z,98640
2022-10-26T12:40:10.000Z,98639
2022-10-26T12:41:36.000Z,98639
2022-10-26T12:45:09.000Z,98644
2022-10-26T12:47:15.000Z,98645
2022-10-26T12:48:41.000Z,98641
2022-10-26T12:50:48.000Z,98647
2022-10-26T12:52:14.000Z,98648
2022-10-26T12:54:20.000Z,98645
2022-10-26T12:55:47.000Z,98645
2022-10-26T12:57:53.000Z,98646
2022-10-26T12:59:19.000Z,98648
2022-10-26T13:01:26.000Z,98648
2022-10-26T13:04:17.000Z,98656
2022-10-26T13:05:43.000Z,98650
2022-10-26T13:07:49.000Z,98657
2022-10-26T13:09:16.000Z,98656
2022-10-26T13:11:26.000Z,98658
2022-10-26T13:12:52.000Z,98656
2022-10-26T13:14:59.000Z,98659
2022-10-26T13:16:25.000Z,98652
2022-10-26T13:18:31.000Z,98657
2022-10-26T13:19:58.000Z,98654
2022-10-26T13:22:04.000Z,98655
2022-10-26T13:23:30.000Z,98663
2022-10-26T13:25:36.000Z,98663
2022-10-26T13:27:03.000Z,98662
2022-10-26T13:29:09.000Z,98663
2022-10-26T13:30:36.000Z,98662
2022-10-26T13:32:42.000Z,98665
2022-10-26T13:34:08.000Z,98668
2022-10-26T13:36:14.000Z,98670
2022-10-26T13:37:41.000Z,98673
2022-10-26T13:39:52.000Z,98668
2022-10-26T13:42:44.000Z,98670
2022-10-26T13:44:10.000Z,98669
2022-10-26T13:46:22.000Z,98670
2022-10-26T13:47:49.000Z,98669
2022-10-26T13:49:55.000Z,98671
2022-10-26T13:51:22.000Z,98671
2022-10-26T13:53:28.000Z,98671
2022-10-26T13:54:54.000Z,98675
2022-10-26T13:57:01.000Z,98675
2022-10-26T13:58:27.000Z,98668
2022-10-26T14:00:33.000Z,98672
2022-10-26T14:02:00.000Z,98675
2022-10-26T14:04:06.000Z,98677
2022-10-26T14:05:33.000Z,98677
2022-10-26T14:07:39.000Z,98679
2022-10-26T14:09:05.000Z,98680
2022-10-26T14:11:11.000Z,98680
2022-10-26T14:12:38.000Z,98679
2022-10-26T14:14:44.000Z,98679
2022-10-26T14:16:11.000Z,98684
2022-10-26T14:18:23.000Z,98677
2022-10-26T14:21:14.000Z,98678
2022-10-26T14:22:41.000Z,98684
2022-10-26T14:24:47.000Z,98688
2022-10-26T14:26:14.000Z,98690
2022-10-26T14:28:24.000Z,98694
2022-10-26T14:29:50.000Z,98693
2022-10-26T14:32:27.000Z,98697
2022-10-26T14:33:53.000Z,98701
2022-10-26T14:35:59.000Z,98699
2022-10-26T14:37:26.000Z,98697
2022-10-26T14:39:32.000Z,98701
2022-10-26T14:40:58.000Z,98705
2022-10-26T14:43:05.000Z,98708
2022-10-26T14:44:31.000Z,98716
2022-10-26T14:46:37.000Z,98715
2022-10-26T14:48:04.000Z,98718
2022-10-26T14:50:10.000Z,98725
2022-10-26T14:51:36.000Z,98730
2022-10-26T14:53:42.000Z,98731
2022-10-26T14:55:09.000Z,98734
2022-10-26T14:57:15.000Z,98736
2022-10-26T15:00:06.000Z,98737
2022-10-26T15:01:32.000Z,98738
2022-10-26T15:03:42.000Z,98742
2022-10-26T15:05:09.000Z,98744
2022-10-26T15:07:15.000Z,98746
2022-10-26T15:08:41.000Z,98744
2022-10-26T15:11:02.000Z,98746
2022-10-26T15:12:28.000Z,98751
2022-10-26T15:14:35.000Z,98748
2022-10-26T15:16:01.000Z,98749
2022-10-26T15:18:07.000Z,98744
2022-10-26T15:19:34.000Z,98743
2022-10-26T15:21:40.000Z,98747
2022-10-26T15:23:07.000Z,98751
2022-10-26T15:25:13.000Z,98755
2022-10-26T15:26:39.000Z,98759
2022-10-26T15:28:45.000Z,98760
2022-10-26T15:30:12.000Z,98761
2022-10-26T15:32:18.000Z,98763
2022-10-26T15:33:45.000Z,98762
2022-10-26T15:35:51.000Z,98764
2022-10-26T15:38:42.000Z,98768
2022-10-26T15:40:08.000Z,98772
2022-10-26T15:42:14.000Z,98773
2022-10-26T15:43:41.000Z,98778
2022-10-26T15:45:47.000Z,98781
2022-10-26T15:47:14.000Z,98780
2022-10-26T15:49:20.000Z,98784
2022-10-26T15:50:46.000Z,98777
2022-10-26T15:52:52.000Z,98778
2022-10-26T15:54:20.000Z,98785
2022-10-26T15:56:26.000Z,98786
2022-10-26T15:57:52.000Z,98788
2022-10-26T15:59:59.000Z,98789
2022-10-26T16:01:25.000Z,98791
2022-10-26T16:03:32.000Z,98797
2022-10-26T16:04:58.000Z,98799
2022-10-26T16:07:04.000Z,98803
2022-10-26T16:08:31.000Z,98808
2022-10-26T16:10:37.000Z,98808
2022-10-26T16:12:03.000Z,98809
2022-10-26T16:14:10.000Z,98816
2022-10-26T16:17:01.000Z,98815
2022-10-26T16:18:27.000Z,98816
2022-10-26T16:20:34.000Z,98820
2022-10-26T16:22:00.000Z,98817
2022-10-26T16:24:06.000Z,98822
2022-10-26T16:25:33.000Z,98825
2022-10-26T16:27:39.000Z,98833
2022-10-26T16:29:06.000Z,98829
2022-10-26T16:31:12.000Z,98831
2022-10-26T16:32:38.000Z,98831
2022-10-26T16:34:44.000Z,98837
2022-10-26T16:36:11.000Z,98839
2022-10-26T16:38:17.000Z,98838
2022-10-26T16:39:43.000Z,98840
2022-10-26T16:41:50.000Z,98840
2022-10-26T16:43:16.000Z,98839
2022-10-26T16:45:22.000Z,98839
2022-10-26T16:46:49.000Z,98847
2022-10-26T16:48:55.000Z,98845
2022-10-26T16:50:21.000Z,98849
2022-10-26T16:52:27.000Z,98857
2022-10-26T16:55:18.000Z,98863
2022-10-26T16:56:45.000Z,98860
2022-10-26T16:58:51.000Z,98865
2022-10-26T17:00:18.000Z,98866
2022-10-26T17:02:24.000Z,98868
2022-10-26T17:03:50.000Z,98867
2022-10-26T17:05:57.000Z,98871
2022-10-26T17:07:23.000Z,98871
2022-10-26T17:09:29.000Z,98874
2022-10-26T17:10:56.000Z,98881
2022-10-26T17:13:02.000Z,98885
2022-10-26T17:14:28.000Z,98885
2022-10-26T17:16:34.000Z,98888
2022-10-26T17:18:01.000Z,98895
2022-10-26T17:20:07.000Z,98895
2022-10-26T17:21:34.000Z,98893
2022-10-26T17:23:40.000Z,98896
2022-10-26T17:25:06.000Z,98896
2022-10-26T17:27:12.000Z,98900
2022-10-26T17:28:39.000Z,98901
2022-10-26T17:30:45.000Z,98905
2022-10-26T17:33:36.000Z,98907
2022-10-26T17:35:02.000Z,98914
2022-10-26T17:37:09.000Z,98914
2022-10-26T17:38:35.000Z,98917
2022-10-26T17:40:41.000Z,98922
2022-10-26T17:42:08.000Z,98924
2022-10-26T17:44:14.000Z,98927
2022-10-26T17:45:40.000Z,98932
2022-10-26T17:47:46.000Z,98939
2022-10-26T17:49:13.000Z,98940
2022-10-26T17:51:19.000Z,98946
2022-10-26T17:52:46.000Z,98949
2022-10-26T17:54:52.000Z,98953
2022-10-26T17:56:18.000Z,98949
2022-10-26T17:58:24.000Z,98955
2022-10-26T17:59:51.000Z,98957
2022-10-26T18:01:57.000Z,98952
2022-10-26T18:03:24.000Z,98956
2022-10-26T18:05:30.000Z,98955
2022-10-26T18:06:56.000Z,98956
2022-10-26T18:09:02.000Z,98959
2022-10-26T18:11:53.000Z,98964
2022-10-26T18:13:22.000Z,98966
2022-10-26T18:15:28.000Z,98972
2022-10-26T18:16:55.000Z,98972
2022-10-26T18:19:01.000Z,98973
2022-10-26T18:20:28.000Z,98976
2022-10-26T18:22:34.000Z,98979
2022-10-26T18:24:00.000Z,98984
2022-10-26T18:26:06.000Z,98989
2022-10-26T18:27:39.000Z,98989
2022-10-26T18:29:45.000Z,98990
2022-10-26T18:31:12.000Z,98993
2022-10-26T18:33:18.000Z,98993
2022-10-26T18:34:44.000Z,98995
2022-10-26T18:36:51.000Z,98994
2022-10-26T18:38:17.000Z,98994
2022-10-26T18:40:23.000Z,98997
2022-10-26T18:41:50.000Z,98998
2022-10-26T18:43:56.000Z,98999
2022-10-26T18:45:22.000Z,99001
2022-10-26T18:47:28.000Z,99007
2022-10-26T18:50:19.000Z,99006
2022-10-26T18:51:46.000Z,99009
2022-10-26T18:53:52.000Z,99009
2022-10-26T18:55:18.000Z,99010
2022-10-26T18:57:25.000Z,99015
2022-10-26T18:58:51.000Z,99015
2022-10-26T19:00:57.000Z,99020
2022-10-26T19:02:24.000Z,99022
2022-10-26T19:04:30.000Z,99025
2022-10-26T19:05:56.000Z,99025
2022-10-26T19:08:02.000Z,99032
2022-10-26T19:09:29.000Z,99028
2022-10-26T19:11:35.000Z,99028
2022-10-26T19:13:02.000Z,99029
2022-10-26T19:15:08.000Z,99030
2022-10-26T19:16:34.000Z,99034
2022-10-26T19:20:19.000Z,99030
2022-10-26T19:22:25.000Z,99032
2022-10-26T19:23:52.000Z,99035
2022-10-26T19:25:58.000Z,99034
2022-10-26T19:28:49.000Z,99036
2022-10-26T19:30:16.000Z,99034
2022-10-26T19:32:22.000Z,99038
2022-10-26T19:33:48.000Z,99043
2022-10-26T19:35:54.000Z,99046
2022-10-26T19:37:21.000Z,99042
2022-10-26T19:39:31.000Z,99046
2022-10-26T19:40:58.000Z,99048
2022-10-26T19:43:04.000Z,99050
2022-10-26T19:44:30.000Z,99055
2022-10-26T19:46:37.000Z,99058
2022-10-26T19:48:03.000Z,99066
2022-10-26T19:50:09.000Z,99068
2022-10-26T19:51:36.000Z,99066
2022-10-26T19:53:42.000Z,99070
2022-10-26T19:55:08.000Z,99070
2022-10-26T19:57:14.000Z,99075
2022-10-26T19:58:41.000Z,99078
2022-10-26T20:00:47.000Z,99085
2022-10-26T20:02:14.000Z,99085
2022-10-26T20:04:20.000Z,99087
2022-10-26T20:07:11.000Z,99093
2022-10-26T20:08:37.000Z,99095
2022-10-26T20:10:43.000Z,99102
2022-10-26T20:12:10.000Z,99105
2022-10-26T20:14:16.000Z,99110
2022-10-26T20:15:42.000Z,99106
2022-10-26T20:17:49.000Z,99112
2022-10-26T20:19:15.000Z,99111
2022-10-26T20:21:21.000Z,99112
2022-10-26T20:22:48.000Z,99113
2022-10-26T20:24:54.000Z,99118
2022-10-26T20:26:21.000Z,99121
2022-10-26T20:28:31.000Z,99119
2022-10-26T20:29:57.000Z,99120
2022-10-26T20:32:03.000Z,99122
2022-10-26T20:33:30.000Z,99121
2022-10-26T20:35:36.000Z,99124
2022-10-26T20:37:02.000Z,99128
2022-10-26T20:39:08.000Z,99130
2022-10-26T20:40:35.000Z,99132
2022-10-26T20:42:41.000Z,99134
2022-10-26T20:45:32.000Z,99132
2022-10-26T20:46:59.000Z,99133
2022-10-26T20:49:05.000Z,99134
2022-10-26T20:50:31.000Z,99137
2022-10-26T20:52:37.000Z,99140
2022-10-26T20:54:04.000Z,99135
2022-10-26T20:56:10.000Z,99132
2022-10-26T20:57:37.000Z,99133
2022-10-26T20:59:43.000Z,99133
2022-10-26T21:01:09.000Z,99131
2022-10-26T21:03:15.000Z,99137
2022-10-26T21:04:42.000Z,99137
2022-10-26T21:06:48.000Z,99137
2022-10-26T21:08:15.000Z,99137
2022-10-26T21:10:21.000Z,99139
2022-10-26T21:11:47.000Z,99141
2022-10-26T21:13:53.000Z,99143
2022-10-26T21:15:20.000Z,99141
2022-10-26T21:17:26.000Z,99142
2022-10-26T21:18:53.000Z,99144
2022-10-26T21:20:59.000Z,99144
2022-10-26T21:23:50.000Z,99143
2022-10-26T21:25:16.000Z,99142
2022-10-26T21:27:23.000Z,99143
2022-10-26T21:28:49.000Z,99144
2022-10-26T21:30:55.000Z,99144
2022-10-26T21:32:22.000Z,99145
2022-10-26T21:34:28.000Z,99141
2022-10-26T21:35:54.000Z,99145
2022-10-26T21:38:00.000Z,99146
2022-10-26T21:39:27.000Z,99148
2022-10-26T21:41:33.000Z,99147
2022-10-26T21:43:00.000Z,99146
2022-10-26T21:45:06.000Z,99147
2022-10-26T21:46:32.000Z,99146
2022-10-26T21:48:38.000Z,99148
2022-10-26T21:50:05.000Z,99152
2022-10-26T21:52:11.000Z,99151
2022-10-26T21:53:37.000Z,99150
2022-10-26T21:55:43.000Z,99148
2022-10-26T21:57:10.000Z,99151
2022-10-26T21:59:16.000Z,99157
2022-10-26T22:02:07.000Z,99157
2022-10-26T22:03:34.000Z,99159
2022-10-26T22:05:40.000Z,99159
2022-10-26T22:07:12.000Z,99160
2022-10-26T22:09:18.000Z,99162
2022-10-26T22:10:44.000Z,99159
2022-10-26T22:12:50.000Z,99161
2022-10-26T22:14:17.000Z,99163
2022-10-26T22:16:23.000Z,99163
2022-10-26T22:17:50.000Z,99164
2022-10-26T22:19:56.000Z,99161
2022-10-26T22:21:23.000Z,99157
2022-10-26T22:23:29.000Z,99157
2022-10-26T22:24:55.000Z,99158
2022-10-26T22:27:01.000Z,99152
2022-10-26T22:28:28.000Z,99150
2022-10-26T22:30:38.000Z,99151
2022-10-26T22:32:05.000Z,99156
2022-10-26T22:34:11.000Z,99156
2022-10-26T22:35:38.000Z,99158
2022-10-26T22:37:44.000Z,99160
2022-10-26T22:40:35.000Z,99165
2022-10-26T22:42:02.000Z,99165
2022-10-26T22:44:08.000Z,99164
2022-10-26T22:45:34.000Z,99164
2022-10-26T22:47:40.000Z,99164
2022-10-26T22:49:07.000Z,99159
2022-10-26T22:51:13.000Z,99159
2022-10-26T22:52:40.000Z,99159
2022-10-26T22:54:46.000Z,99157
2022-10-26T22:56:12.000Z,99161
2022-10-26T22:58:18.000Z,99165
2022-10-26T22:59:45.000Z,99169
2022-10-26T23:01:51.000Z,99171
2022-10-26T23:03:18.000Z,99174
2022-10-26T23:05:24.000Z,99177
2022-10-26T23:06:51.000Z,99179
2022-10-26T23:08:57.000Z,99177
2022-10-26T23:10:23.000Z,99182
2022-10-26T23:12:29.000Z,99183
2022-10-26T23:13:56.000Z,99187
2022-10-26T23:16:02.000Z,99190
2022-10-26T23:18:53.000Z,99190
2022-10-26T23:20:20.000Z,99191
2022-10-26T23:22:26.000Z,99190
2022-10-26T23:23:52.000Z,99192
2022-10-26T23:25:58.000Z,99190
2022-10-26T23:27:25.000Z,99194
2022-10-26T23:29:31.000Z,99197
2022-10-26T23:30:57.000Z,99194
2022-10-26T23:33:04.000Z,99195
2022-10-26T23:34:30.000Z,99194
2022-10-26T23:36:36.000Z,99201
2022-10-26T23:38:03.000Z,99203